Pilot No 5 — WDC3840 — position and weather

sailwx.info

Track history (hours):
 
Tides and Currents Weather Stations Pressure Air Temp Water Temp Dewpoint Dewpoint Depression Visibility Wind Speed Wind Dir Waves Ship Positions

Pilot No 5

Owner: P E P INC, FT LAUDERDALE, FL. More information available from US FCC via Universal Licensing System and Coast Guard Vessel Documentation Center.

Last reported at 2016-Aug-27 18:18 UTC. Time now 2016-Aug-28 00:32 UTC.
Position N 26°06' W 080°07'.

Length 6 m.

Type: Pilot. MMSI: 367015090.

Date/timePositionNaut miles runAvg speedWind from/ knotsBaromVisibWave heightAir tempDewpointWater temp
2016-Aug-27 18:18N 26°06' W 080°07'1 1.1
2016-Aug-27 17:34N 26°06' W 080°07'1 1.3
2016-Aug-27 16:33N 26°04' W 080°07'1 0.4
2016-Aug-27 13:33N 26°05' W 080°07'0 0.2
2016-Aug-27 12:33N 26°06' W 080°07'3 3.5
2016-Aug-27 11:33N 26°05' W 080°03'4 1.9
2016-Aug-27 09:33N 26°06' W 080°07'3 2.6
2016-Aug-27 08:33N 26°05' W 080°05'2 2.0
2016-Aug-27 07:33N 26°05' W 080°07'0 0.3
2016-Aug-27 06:33N 26°05' W 080°07'0 0.2
2016-Aug-27 04:33N 26°05' W 080°07'0 0.0
2016-Aug-26 20:33N 26°06' W 080°07'1 1.4
2016-Aug-26 19:33N 26°04' W 080°07'1 0.5
2016-Aug-26 16:33N 26°06' W 080°07'1 0.8
2016-Aug-26 15:34N 26°05' W 080°07'1 0.5
2016-Aug-26 14:34N 26°06' W 080°07'1 0.7
2016-Aug-26 13:33N 26°06' W 080°07'0 0.4
2016-Aug-26 12:33N 26°06' W 080°07'1 1.5
2016-Aug-26 11:33N 26°06' W 080°06'0 0.4
2016-Aug-26 10:33N 26°06' W 080°06'1 0.8
2016-Aug-26 09:33N 26°05' W 080°07'1 0.8
2016-Aug-26 08:20N 26°06' W 080°07'1 1.0
2016-Aug-26 07:34N 26°06' W 080°07'0 0.4
2016-Aug-26 06:33N 26°05' W 080°07'0 0.1
2016-Aug-26 04:33N 26°06' W 080°07'0 0.1
2016-Aug-26 01:33N 26°06' W 080°07'0 0.5
2016-Aug-26 00:33N 26°06' W 080°07'2 1.6
2016-Aug-25 23:34N 26°06' W 080°05'2 1.7
2016-Aug-25 22:33N 26°05' W 080°07'2 2.2
2016-Aug-25 21:33N 26°05' W 080°04'2 0.7
2016-Aug-25 18:33N 26°06' W 080°07'0 0.2
2016-Aug-25 17:33N 26°06' W 080°07'1 0.6
2016-Aug-25 16:33N 26°06' W 080°07'0 0.0
2016-Aug-25 15:33N 26°06' W 080°07'0 0.0
2016-Aug-25 14:33N 26°06' W 080°07'0 0.0
2016-Aug-25 13:33N 26°06' W 080°07'2 2.2
2016-Aug-25 12:33N 26°06' W 080°05'2 2.1
2016-Aug-25 11:33N 26°06' W 080°07'0 0.0
2016-Aug-24 11:25N 26°06' W 080°07'1 0.7
2016-Aug-24 10:33N 26°06' W 080°07'0 0.4
2016-Aug-24 09:33N 26°05' W 080°07'3 3.3
2016-Aug-24 08:34N 26°05' W 080°03'4 3.5
2016-Aug-24 07:33N 26°06' W 080°07'0 0.2
2016-Aug-24 06:33N 26°06' W 080°07'1 0.4
2016-Aug-24 04:34N 26°05' W 080°07'1 0.8
2016-Aug-24 03:33N 26°06' W 080°07'0 0.0
2016-Aug-23 16:33N 26°06' W 080°07'0 0.0
2016-Aug-23 15:33N 26°06' W 080°07'0 0.0
2016-Aug-23 14:33N 26°06' W 080°07'0 0.0
2016-Aug-23 13:33N 26°06' W 080°07'0 0.0
2016-Aug-23 12:33N 26°06' W 080°07'0 0.0
2016-Aug-23 11:33N 26°06' W 080°07'0 0.0
2016-Aug-23 10:33N 26°06' W 080°07'0 0.0
2016-Aug-23 09:33N 26°06' W 080°07'0 0.0
2016-Aug-23 08:33N 26°06' W 080°07'0 0.0
2016-Aug-23 07:33N 26°06' W 080°07'0 0.0
2016-Aug-23 06:33N 26°06' W 080°07'0 0.0
2016-Aug-23 05:33N 26°06' W 080°07'0 0.0
2016-Aug-23 04:33N 26°06' W 080°07'0 0.0
2016-Aug-23 03:33N 26°06' W 080°07'0 0.0
2016-Aug-23 02:33N 26°06' W 080°07'0 0.0
2016-Aug-23 01:33N 26°06' W 080°07'0 0.0
2016-Aug-23 00:33N 26°06' W 080°07'0 0.0
2016-Aug-22 23:33N 26°06' W 080°07'0 0.0
2016-Aug-22 22:33N 26°06' W 080°07'0 0.0
2016-Aug-22 21:33N 26°06' W 080°07'0 0.0
2016-Aug-22 20:33N 26°06' W 080°07'0 0.0
2016-Aug-22 19:33N 26°06' W 080°07'0 0.0
2016-Aug-22 18:33N 26°06' W 080°07'0 0.0
2016-Aug-22 17:33N 26°06' W 080°07'0 0.0
2016-Aug-22 16:33N 26°06' W 080°07'0 0.0
2016-Aug-22 12:33N 26°06' W 080°07'0 0.0
2016-Aug-22 11:33N 26°06' W 080°07'0 0.0
2016-Aug-22 03:20N 26°06' W 080°07'2 2.8
2016-Aug-22 02:33N 26°04' W 080°07'2 1.6
2016-Aug-22 01:33N 26°06' W 080°07'1 0.6
2016-Aug-22 00:33N 26°06' W 080°07'0 0.2
2016-Aug-21 22:33N 26°05' W 080°07'2 2.2
2016-Aug-21 21:33N 26°06' W 080°05'2 2.4
2016-Aug-21 20:33N 26°06' W 080°07'1 0.0
2016-Aug-21 02:33N 26°06' W 080°07'1 0.9
2016-Aug-21 01:33N 26°05' W 080°07'0 0.5
2016-Aug-21 00:33N 26°06' W 080°06'0 0.2
2016-Aug-20 23:33N 26°06' W 080°07'1 1.1
2016-Aug-20 22:33N 26°04' W 080°07'2 2.1
2016-Aug-20 21:33N 26°06' W 080°05'2 1.8
2016-Aug-20 20:33N 26°06' W 080°07'1 0.0
2016-Aug-19 17:08N 26°06' W 080°07'1 2.4
2016-Aug-19 16:33N 26°05' W 080°07'2 1.7
2016-Aug-19 15:33N 26°07' W 080°07'1 0.0
2016-Aug-18 07:33N 26°06' W 080°06'1 1.4
2016-Aug-18 06:33N 26°04' W 080°07'2 0.9
2016-Aug-18 04:33N 26°06' W 080°05'2 1.8
2016-Aug-18 03:33N 26°06' W 080°07'  
Track history (hours):
 
Tides and Currents Weather Stations Pressure Air Temp Water Temp Dewpoint Dewpoint Depression Visibility Wind Speed Wind Dir Waves Ship Positions

Pilot No 5

Owner: P E P INC, FT LAUDERDALE, FL. More information available from US FCC via Universal Licensing System and Coast Guard Vessel Documentation Center.

Last reported at 2016-Aug-27 18:18 UTC. Time now 2016-Aug-28 00:32 UTC.
Position N 26°06' W 080°07'.

Length 6 m.

Type: Pilot. MMSI: 367015090.

Date/timePositionNaut miles runAvg speedWind from/ knotsBaromVisibWave heightAir tempDewpointWater temp
2016-Aug-27 18:18N 26°06' W 080°07'1 1.1
2016-Aug-27 17:34N 26°06' W 080°07'1 1.3
2016-Aug-27 16:33N 26°04' W 080°07'1 0.4
2016-Aug-27 13:33N 26°05' W 080°07'0 0.2
2016-Aug-27 12:33N 26°06' W 080°07'3 3.5
2016-Aug-27 11:33N 26°05' W 080°03'4 1.9
2016-Aug-27 09:33N 26°06' W 080°07'3 2.6
2016-Aug-27 08:33N 26°05' W 080°05'2 2.0
2016-Aug-27 07:33N 26°05' W 080°07'0 0.3
2016-Aug-27 06:33N 26°05' W 080°07'0 0.2
2016-Aug-27 04:33N 26°05' W 080°07'0 0.0
2016-Aug-26 20:33N 26°06' W 080°07'1 1.4
2016-Aug-26 19:33N 26°04' W 080°07'1 0.5
2016-Aug-26 16:33N 26°06' W 080°07'1 0.8
2016-Aug-26 15:34N 26°05' W 080°07'1 0.5
2016-Aug-26 14:34N 26°06' W 080°07'1 0.7
2016-Aug-26 13:33N 26°06' W 080°07'0 0.4
2016-Aug-26 12:33N 26°06' W 080°07'1 1.5
2016-Aug-26 11:33N 26°06' W 080°06'0 0.4
2016-Aug-26 10:33N 26°06' W 080°06'1 0.8
2016-Aug-26 09:33N 26°05' W 080°07'1 0.8
2016-Aug-26 08:20N 26°06' W 080°07'1 1.0
2016-Aug-26 07:34N 26°06' W 080°07'0 0.4
2016-Aug-26 06:33N 26°05' W 080°07'0 0.1
2016-Aug-26 04:33N 26°06' W 080°07'0 0.1
2016-Aug-26 01:33N 26°06' W 080°07'0 0.5
2016-Aug-26 00:33N 26°06' W 080°07'2 1.6
2016-Aug-25 23:34N 26°06' W 080°05'2 1.7
2016-Aug-25 22:33N 26°05' W 080°07'2 2.2
2016-Aug-25 21:33N 26°05' W 080°04'2 0.7
2016-Aug-25 18:33N 26°06' W 080°07'0 0.2
2016-Aug-25 17:33N 26°06' W 080°07'1 0.6
2016-Aug-25 16:33N 26°06' W 080°07'0 0.0
2016-Aug-25 15:33N 26°06' W 080°07'0 0.0
2016-Aug-25 14:33N 26°06' W 080°07'0 0.0
2016-Aug-25 13:33N 26°06' W 080°07'2 2.2
2016-Aug-25 12:33N 26°06' W 080°05'2 2.1
2016-Aug-25 11:33N 26°06' W 080°07'0 0.0
2016-Aug-24 11:25N 26°06' W 080°07'1 0.7
2016-Aug-24 10:33N 26°06' W 080°07'0 0.4
2016-Aug-24 09:33N 26°05' W 080°07'3 3.3
2016-Aug-24 08:34N 26°05' W 080°03'4 3.5
2016-Aug-24 07:33N 26°06' W 080°07'0 0.2
2016-Aug-24 06:33N 26°06' W 080°07'1 0.4
2016-Aug-24 04:34N 26°05' W 080°07'1 0.8
2016-Aug-24 03:33N 26°06' W 080°07'0 0.0
2016-Aug-23 16:33N 26°06' W 080°07'0 0.0
2016-Aug-23 15:33N 26°06' W 080°07'0 0.0
2016-Aug-23 14:33N 26°06' W 080°07'0 0.0
2016-Aug-23 13:33N 26°06' W 080°07'0 0.0
2016-Aug-23 12:33N 26°06' W 080°07'0 0.0
2016-Aug-23 11:33N 26°06' W 080°07'0 0.0
2016-Aug-23 10:33N 26°06' W 080°07'0 0.0
2016-Aug-23 09:33N 26°06' W 080°07'0 0.0
2016-Aug-23 08:33N 26°06' W 080°07'0 0.0
2016-Aug-23 07:33N 26°06' W 080°07'0 0.0
2016-Aug-23 06:33N 26°06' W 080°07'0 0.0
2016-Aug-23 05:33N 26°06' W 080°07'0 0.0
2016-Aug-23 04:33N 26°06' W 080°07'0 0.0
2016-Aug-23 03:33N 26°06' W 080°07'0 0.0
2016-Aug-23 02:33N 26°06' W 080°07'0 0.0
2016-Aug-23 01:33N 26°06' W 080°07'0 0.0
2016-Aug-23 00:33N 26°06' W 080°07'0 0.0
2016-Aug-22 23:33N 26°06' W 080°07'0 0.0
2016-Aug-22 22:33N 26°06' W 080°07'0 0.0
2016-Aug-22 21:33N 26°06' W 080°07'0 0.0
2016-Aug-22 20:33N 26°06' W 080°07'0 0.0
2016-Aug-22 19:33N 26°06' W 080°07'0 0.0
2016-Aug-22 18:33N 26°06' W 080°07'0 0.0
2016-Aug-22 17:33N 26°06' W 080°07'0 0.0
2016-Aug-22 16:33N 26°06' W 080°07'0 0.0
2016-Aug-22 12:33N 26°06' W 080°07'0 0.0
2016-Aug-22 11:33N 26°06' W 080°07'0 0.0
2016-Aug-22 03:20N 26°06' W 080°07'2 2.8
2016-Aug-22 02:33N 26°04' W 080°07'2 1.6
2016-Aug-22 01:33N 26°06' W 080°07'1 0.6
2016-Aug-22 00:33N 26°06' W 080°07'0 0.2
2016-Aug-21 22:33N 26°05' W 080°07'2 2.2
2016-Aug-21 21:33N 26°06' W 080°05'2 2.4
2016-Aug-21 20:33N 26°06' W 080°07'1 0.0
2016-Aug-21 02:33N 26°06' W 080°07'1 0.9
2016-Aug-21 01:33N 26°05' W 080°07'0 0.5
2016-Aug-21 00:33N 26°06' W 080°06'0 0.2
2016-Aug-20 23:33N 26°06' W 080°07'1 1.1
2016-Aug-20 22:33N 26°04' W 080°07'2 2.1
2016-Aug-20 21:33N 26°06' W 080°05'2 1.8
2016-Aug-20 20:33N 26°06' W 080°07'1 0.0
2016-Aug-19 17:08N 26°06' W 080°07'1 2.4
2016-Aug-19 16:33N 26°05' W 080°07'2 1.7
2016-Aug-19 15:33N 26°07' W 080°07'1 0.0
2016-Aug-18 07:33N 26°06' W 080°06'1 1.4
2016-Aug-18 06:33N 26°04' W 080°07'2 0.9
2016-Aug-18 04:33N 26°06' W 080°05'2 1.8
2016-Aug-18 03:33N 26°06' W 080°07'  

Dump ship's entire track history